createdAt,value
2019-02-02T00:00:39.113Z,80.19
2019-02-02T00:01:39.123Z,80.05
2019-02-02T00:02:39.091Z,79.73
2019-02-02T00:03:39.157Z,79.42
2019-02-02T00:04:39.103Z,78.45
2019-02-02T00:05:39.091Z,78.66
2019-02-02T00:06:39.051Z,79.38
2019-02-02T00:07:39.032Z,79.07
2019-02-02T00:08:39.066Z,78.97
2019-02-02T00:09:39.016Z,78.66
2019-02-02T00:10:39.007Z,79.07
2019-02-02T00:11:39.034Z,78.80
2019-02-02T00:12:38.985Z,79.00
2019-02-02T00:13:38.967Z,79.42
2019-02-02T00:14:38.956Z,79.42
2019-02-02T00:15:38.974Z,79.42
2019-02-02T00:16:38.982Z,79.83
2019-02-02T00:17:38.923Z,79.28
2019-02-02T00:18:38.955Z,79.49
2019-02-02T00:19:38.904Z,79.42
2019-02-02T00:20:38.909Z,79.42
2019-02-02T00:21:38.881Z,79.52
2019-02-02T00:22:38.876Z,79.94
2019-02-02T00:23:38.884Z,79.63
2019-02-02T00:24:38.850Z,79.52
2019-02-02T00:25:38.846Z,79.63
2019-02-02T00:26:38.825Z,79.52
2019-02-02T00:27:41.442Z,79.63
2019-02-02T00:28:38.808Z,79.17
2019-02-02T00:29:38.797Z,79.32
2019-02-02T00:30:38.786Z,78.97
2019-02-02T00:31:38.774Z,79.28
2019-02-02T00:32:38.795Z,79.17
2019-02-02T00:33:38.762Z,78.76
2019-02-02T00:34:38.741Z,78.66
2019-02-02T00:35:38.728Z,78.76
2019-02-02T00:36:38.729Z,78.76
2019-02-02T00:37:38.739Z,78.45
2019-02-02T00:38:38.706Z,78.76
2019-02-02T00:39:38.693Z,78.24
2019-02-02T00:40:38.678Z,78.86
2019-02-02T00:41:38.669Z,78.86
2019-02-02T00:42:38.687Z,78.86
2019-02-02T00:43:38.754Z,79.28
2019-02-02T00:44:38.637Z,78.97
2019-02-02T00:45:38.628Z,78.76
2019-02-02T00:46:38.606Z,78.97
2019-02-02T00:47:38.602Z,78.76
2019-02-02T00:48:38.615Z,78.55
2019-02-02T00:49:38.575Z,78.66
2019-02-02T00:50:38.630Z,77.89
2019-02-02T00:51:38.587Z,77.89
2019-02-02T00:52:38.538Z,78.24
2019-02-02T00:53:38.558Z,77.79
2019-02-02T00:54:38.522Z,77.51
2019-02-02T00:55:38.506Z,77.79
2019-02-02T00:56:38.496Z,77.72
2019-02-02T00:57:38.487Z,78.03
2019-02-02T00:58:38.478Z,77.83
2019-02-02T00:59:38.495Z,77.69
2019-02-02T01:00:38.452Z,77.69
2019-02-02T01:01:38.440Z,77.72
2019-02-02T01:02:38.431Z,78.80
2019-02-02T01:03:38.420Z,79.11
2019-02-02T01:04:38.431Z,79.87
2019-02-02T01:05:38.395Z,80.08
2019-02-02T01:06:38.385Z,80.12
2019-02-02T01:07:38.381Z,80.43
2019-02-02T01:08:38.382Z,80.40
2019-02-02T01:09:38.385Z,80.29
2019-02-02T01:10:38.347Z,79.98
2019-02-02T01:11:38.334Z,79.94
2019-02-02T01:12:38.321Z,79.73
2019-02-02T01:13:38.322Z,79.63
2019-02-02T01:14:38.322Z,79.11
2019-02-02T01:15:38.316Z,79.52
2019-02-02T01:16:38.291Z,79.73
2019-02-02T01:17:38.268Z,79.11
2019-02-02T01:18:38.257Z,79.87
2019-02-02T01:19:38.250Z,79.98
2019-02-02T01:20:38.270Z,80.08
2019-02-02T01:21:38.229Z,79.87
2019-02-02T01:22:38.215Z,80.08
2019-02-02T01:23:38.237Z,79.52
2019-02-02T01:24:38.190Z,79.63
2019-02-02T01:25:38.222Z,79.21
2019-02-02T01:26:38.168Z,79.00
2019-02-02T01:27:38.163Z,79.42
2019-02-02T01:28:38.187Z,79.73
2019-02-02T01:29:38.176Z,79.11
2019-02-02T01:30:38.134Z,79.00
2019-02-02T01:31:38.115Z,79.32
2019-02-02T01:32:38.101Z,79.00
2019-02-02T01:33:38.126Z,79.42
2019-02-02T01:34:38.091Z,79.28
2019-02-02T01:35:38.073Z,78.86
2019-02-02T01:36:38.081Z,79.21
2019-02-02T01:37:38.046Z,79.11
2019-02-02T01:38:38.050Z,79.00
2019-02-02T01:39:38.031Z,79.52
2019-02-02T01:40:38.022Z,79.73
2019-02-02T01:41:38.028Z,79.11
2019-02-02T01:42:38.022Z,79.00
2019-02-02T01:43:37.985Z,79.32
2019-02-02T01:44:37.972Z,79.04
2019-02-02T01:45:37.966Z,79.56
2019-02-02T01:46:37.969Z,79.66
2019-02-02T01:47:37.963Z,79.77
2019-02-02T01:48:37.930Z,79.94
2019-02-02T01:49:37.918Z,79.56
2019-02-02T01:50:37.906Z,79.87
2019-02-02T01:51:37.898Z,79.66
2019-02-02T01:52:37.914Z,80.08
2019-02-02T01:53:37.872Z,80.40
2019-02-02T01:54:38.491Z,80.29
2019-02-02T01:55:37.849Z,79.66
2019-02-02T01:56:37.838Z,80.19
2019-02-02T01:57:37.829Z,79.98
2019-02-02T01:58:37.844Z,79.87
2019-02-02T01:59:37.815Z,79.98
2019-02-02T02:00:37.793Z,80.08
2019-02-02T02:01:37.788Z,80.50
2019-02-02T02:02:37.771Z,80.19
2019-02-02T02:03:37.864Z,80.85
2019-02-02T02:04:37.756Z,81.05
2019-02-02T02:05:37.758Z,81.47
2019-02-02T02:06:37.727Z,80.74
2019-02-02T02:07:37.719Z,80.85
2019-02-02T02:08:37.744Z,80.85
2019-02-02T02:09:37.729Z,80.85
2019-02-02T02:10:37.696Z,80.60
2019-02-02T02:11:37.684Z,80.29
2019-02-02T02:12:37.673Z,80.29
2019-02-02T02:13:37.653Z,80.40
2019-02-02T02:14:37.670Z,80.74
2019-02-02T02:15:37.629Z,80.95
2019-02-02T02:16:37.626Z,80.95
2019-02-02T02:17:37.614Z,80.81
2019-02-02T02:18:37.597Z,80.29
2019-02-02T02:19:37.590Z,80.71
2019-02-02T02:20:37.617Z,80.57
2019-02-02T02:21:37.569Z,80.05
2019-02-02T02:22:41.275Z,80.15
2019-02-02T02:23:37.550Z,79.83
2019-02-02T02:24:37.548Z,79.94
2019-02-02T02:25:37.569Z,79.73
2019-02-02T02:26:37.511Z,79.94
2019-02-02T02:27:37.517Z,80.05
2019-02-02T02:28:37.512Z,80.26
2019-02-02T02:29:37.525Z,80.26
2019-02-02T02:30:37.472Z,80.26
2019-02-02T02:31:37.458Z,80.36
2019-02-02T02:32:37.448Z,80.05
2019-02-02T02:33:37.480Z,80.26
2019-02-02T02:34:37.468Z,80.05
2019-02-02T02:35:37.414Z,80.15
2019-02-02T02:36:37.405Z,80.05
2019-02-02T02:37:37.395Z,80.05
2019-02-02T02:38:37.405Z,79.49
2019-02-02T02:39:37.412Z,80.05
2019-02-02T02:40:37.364Z,80.36
2019-02-02T02:41:37.380Z,79.83
2019-02-02T02:42:37.688Z,79.83
2019-02-02T02:43:37.330Z,79.83
2019-02-02T02:44:37.324Z,79.73
2019-02-02T02:45:37.310Z,79.80
2019-02-02T02:46:37.293Z,79.94
2019-02-02T02:47:37.347Z,79.91
2019-02-02T02:48:37.276Z,80.05
2019-02-02T02:49:37.266Z,79.83
2019-02-02T02:50:37.269Z,80.01
2019-02-02T02:51:37.400Z,79.63
2019-02-02T02:52:37.254Z,80.15
2019-02-02T02:53:37.246Z,80.36
2019-02-02T02:54:37.207Z,80.77
2019-02-02T02:55:37.244Z,80.43
2019-02-02T02:56:37.196Z,80.01
2019-02-02T02:57:37.180Z,79.94
2019-02-02T02:58:41.470Z,80.15
2019-02-02T02:59:37.161Z,80.36
2019-02-02T03:00:37.146Z,80.50
2019-02-02T03:01:37.129Z,80.50
2019-02-02T03:02:37.140Z,80.77
2019-02-02T03:03:37.142Z,80.88
2019-02-02T03:04:37.122Z,80.98
2019-02-02T03:05:37.093Z,80.46
2019-02-02T03:06:37.078Z,80.57
2019-02-02T03:07:37.073Z,80.57
2019-02-02T03:08:37.098Z,80.57
2019-02-02T03:09:37.042Z,80.77
2019-02-02T03:10:37.035Z,80.15
2019-02-02T03:11:37.049Z,80.22
2019-02-02T03:12:37.010Z,80.05
2019-02-02T03:13:37.001Z,80.15
2019-02-02T03:14:37.038Z,80.36
2019-02-02T03:15:36.985Z,80.77
2019-02-02T03:16:36.981Z,81.09
2019-02-02T03:17:36.952Z,80.71
2019-02-02T03:18:36.941Z,80.81
2019-02-02T03:19:36.936Z,80.91
2019-02-02T03:20:36.963Z,80.81
2019-02-02T03:21:36.908Z,81.43
2019-02-02T03:22:36.900Z,81.75
2019-02-02T03:23:36.900Z,81.65
2019-02-02T03:24:36.877Z,81.23
2019-02-02T03:25:36.894Z,81.33
2019-02-02T03:26:36.863Z,81.02
2019-02-02T03:27:36.842Z,81.33
2019-02-02T03:28:36.844Z,81.33
2019-02-02T03:29:36.827Z,81.12
2019-02-02T03:30:36.824Z,81.02
2019-02-02T03:31:36.830Z,80.81
2019-02-02T03:32:36.910Z,81.43
2019-02-02T03:33:36.790Z,81.75
2019-02-02T03:34:36.778Z,81.43
2019-02-02T03:35:36.777Z,80.81
2019-02-02T03:36:36.773Z,81.02
2019-02-02T03:37:36.736Z,80.81
2019-02-02T03:38:36.737Z,80.77
2019-02-02T03:39:36.727Z,81.09
2019-02-02T03:40:36.707Z,81.02
2019-02-02T03:41:36.701Z,80.81
2019-02-02T03:42:36.716Z,81.02
2019-02-02T03:43:36.673Z,80.98
2019-02-02T03:44:36.662Z,80.77
2019-02-02T03:45:40.341Z,81.09
2019-02-02T03:46:36.641Z,81.09
2019-02-02T03:47:36.650Z,80.67
2019-02-02T03:48:36.618Z,81.09
2019-02-02T03:49:36.616Z,80.67
2019-02-02T03:50:36.593Z,80.88
2019-02-02T03:51:36.584Z,80.77
2019-02-02T03:52:36.613Z,80.98
2019-02-02T03:53:36.567Z,80.57
2019-02-02T03:54:36.560Z,80.57
2019-02-02T03:55:36.543Z,80.67
2019-02-02T03:56:36.559Z,80.60
2019-02-02T03:57:36.524Z,80.98
2019-02-02T03:58:36.535Z,80.88
2019-02-02T03:59:36.500Z,80.77
2019-02-02T04:00:36.497Z,80.77
2019-02-02T04:01:36.477Z,80.67
2019-02-02T04:02:36.466Z,81.19
2019-02-02T04:03:36.464Z,80.88
2019-02-02T04:04:36.480Z,80.98
2019-02-02T04:05:36.442Z,81.12
2019-02-02T04:06:36.425Z,82.27
2019-02-02T04:07:36.414Z,81.96
2019-02-02T04:08:36.406Z,81.96
2019-02-02T04:09:36.418Z,82.48
2019-02-02T04:10:36.387Z,81.65
2019-02-02T04:11:36.376Z,82.37
2019-02-02T04:12:36.362Z,81.75
2019-02-02T04:13:36.361Z,81.85
2019-02-02T04:14:36.375Z,82.23
2019-02-02T04:15:36.330Z,81.60
2019-02-02T04:16:36.358Z,82.23
2019-02-02T04:17:36.317Z,81.65
2019-02-02T04:18:36.304Z,81.19
2019-02-02T04:19:36.307Z,81.43
2019-02-02T04:20:36.303Z,81.43
2019-02-02T04:21:36.261Z,82.27
2019-02-02T04:22:36.253Z,81.65
2019-02-02T04:23:36.243Z,81.96
2019-02-02T04:24:36.234Z,81.96
2019-02-02T04:25:36.248Z,82.06
2019-02-02T04:26:36.222Z,82.27
2019-02-02T04:27:36.198Z,81.65
2019-02-02T04:28:36.201Z,81.85
2019-02-02T04:29:36.204Z,81.54
2019-02-02T04:30:36.203Z,81.96
2019-02-02T04:31:36.152Z,81.75
2019-02-02T04:32:36.220Z,82.06
2019-02-02T04:33:36.286Z,81.96
2019-02-02T04:34:36.126Z,81.85
2019-02-02T04:35:36.116Z,81.85
2019-02-02T04:36:36.105Z,82.06
2019-02-02T04:37:38.137Z,81.43
2019-02-02T04:38:36.097Z,82.37
2019-02-02T04:39:36.067Z,82.41
2019-02-02T04:40:36.065Z,82.20
2019-02-02T04:41:36.061Z,82.27
2019-02-02T04:42:36.070Z,82.37
2019-02-02T04:43:36.030Z,82.17
2019-02-02T04:44:36.017Z,82.37
2019-02-02T04:45:36.013Z,82.51
2019-02-02T04:46:36.001Z,83.25
2019-02-02T04:47:36.027Z,83.45
2019-02-02T04:48:35.994Z,83.04
2019-02-02T04:49:35.961Z,82.41
2019-02-02T04:50:35.951Z,82.62
2019-02-02T04:51:35.946Z,82.10
2019-02-02T04:52:35.960Z,82.82
2019-02-02T04:53:35.924Z,82.37
2019-02-02T04:54:35.912Z,82.37
2019-02-02T04:55:35.929Z,82.27
2019-02-02T04:56:35.892Z,82.58
2019-02-02T04:57:35.892Z,82.17
2019-02-02T04:58:35.897Z,81.96
2019-02-02T04:59:35.862Z,81.85
2019-02-02T05:00:35.853Z,81.71
2019-02-02T05:01:35.847Z,81.85
2019-02-02T05:02:35.849Z,81.75
2019-02-02T05:03:35.838Z,81.75
2019-02-02T05:04:35.815Z,81.85
2019-02-02T05:05:35.794Z,81.85
2019-02-02T05:06:35.813Z,82.06
2019-02-02T05:07:35.771Z,82.06
2019-02-02T05:08:35.778Z,82.06
2019-02-02T05:09:35.785Z,82.51
2019-02-02T05:10:35.738Z,83.14
2019-02-02T05:11:35.733Z,83.66
2019-02-02T05:12:35.761Z,83.97
2019-02-02T05:13:35.727Z,84.12
2019-02-02T05:14:35.724Z,84.39
2019-02-02T05:15:35.729Z,83.97
2019-02-02T05:16:35.676Z,83.97
2019-02-02T05:17:35.674Z,83.45
2019-02-02T05:18:35.659Z,83.56
2019-02-02T05:19:35.677Z,83.87
2019-02-02T05:20:35.638Z,83.35
2019-02-02T05:21:35.623Z,83.66
2019-02-02T05:22:35.614Z,83.25
2019-02-02T05:23:35.608Z,83.76
2019-02-02T05:24:35.624Z,82.93
2019-02-02T05:25:35.578Z,83.25
2019-02-02T05:26:35.571Z,82.93
2019-02-02T05:27:35.587Z,83.62
2019-02-02T05:28:35.585Z,83.76
2019-02-02T05:29:41.514Z,83.76
2019-02-02T05:30:36.532Z,83.87
2019-02-02T05:31:35.520Z,84.08
2019-02-02T05:32:35.528Z,84.18
2019-02-02T05:33:35.537Z,84.08
2019-02-02T05:34:35.530Z,83.87
2019-02-02T05:35:35.475Z,83.56
2019-02-02T05:36:35.473Z,83.76
2019-02-02T05:37:35.450Z,83.52
2019-02-02T05:38:35.446Z,83.45
2019-02-02T05:39:35.478Z,83.62
2019-02-02T05:40:35.454Z,84.18
2019-02-02T05:41:35.411Z,83.97
2019-02-02T05:42:35.404Z,84.08
2019-02-02T05:43:35.404Z,83.97
2019-02-02T05:44:35.392Z,84.18
2019-02-02T05:45:35.403Z,84.50
2019-02-02T05:46:35.353Z,83.97
2019-02-02T05:47:35.353Z,84.81
2019-02-02T05:48:35.332Z,84.60
2019-02-02T05:49:35.328Z,84.18
2019-02-02T05:50:35.333Z,85.22
2019-02-02T05:51:35.347Z,85.33
2019-02-02T05:52:35.340Z,84.50
2019-02-02T05:53:35.283Z,84.08
2019-02-02T05:54:35.272Z,83.97
2019-02-02T05:55:35.268Z,84.25
2019-02-02T05:56:35.291Z,84.14
2019-02-02T05:57:35.248Z,84.04
2019-02-02T05:58:35.235Z,84.25
2019-02-02T05:59:35.225Z,84.04
2019-02-02T06:00:35.210Z,84.14
2019-02-02T06:01:35.215Z,83.94
2019-02-02T06:02:35.221Z,83.42
2019-02-02T06:03:35.173Z,84.04
2019-02-02T06:04:35.167Z,84.25
2019-02-02T06:05:35.194Z,84.25
2019-02-02T06:06:35.144Z,84.04
2019-02-02T06:07:35.158Z,83.90
2019-02-02T06:08:35.127Z,83.52
2019-02-02T06:09:35.115Z,83.69
2019-02-02T06:10:35.099Z,83.73
2019-02-02T06:11:35.094Z,83.00
2019-02-02T06:12:35.109Z,83.73
2019-02-02T06:13:35.101Z,83.69
2019-02-02T06:14:35.075Z,83.52
2019-02-02T06:15:35.051Z,83.31
2019-02-02T06:16:35.033Z,83.31
2019-02-02T06:17:35.029Z,83.83
2019-02-02T06:18:35.045Z,83.94
2019-02-02T06:19:35.004Z,83.48
2019-02-02T06:20:34.995Z,83.31
2019-02-02T06:21:34.981Z,84.04
2019-02-02T06:22:35.006Z,84.04
2019-02-02T06:23:34.964Z,84.04
2019-02-02T06:24:34.977Z,83.62
2019-02-02T06:25:34.938Z,83.52
2019-02-02T06:26:34.928Z,84.04
2019-02-02T06:27:34.930Z,83.20
2019-02-02T06:28:34.907Z,83.20
2019-02-02T06:29:34.917Z,84.04
2019-02-02T06:30:34.891Z,84.14
2019-02-02T06:31:34.869Z,83.87
2019-02-02T06:32:34.865Z,84.28
2019-02-02T06:33:34.849Z,85.12
2019-02-02T06:34:34.867Z,85.08
2019-02-02T06:35:34.865Z,85.19
2019-02-02T06:36:34.815Z,85.12
2019-02-02T06:37:34.817Z,84.77
2019-02-02T06:38:34.803Z,85.08
2019-02-02T06:39:34.806Z,84.77
2019-02-02T06:40:34.816Z,84.77
2019-02-02T06:41:34.772Z,84.56
2019-02-02T06:42:34.763Z,84.52
2019-02-02T06:43:34.745Z,84.04
2019-02-02T06:44:34.733Z,84.14
2019-02-02T06:45:34.753Z,83.94
2019-02-02T06:46:43.301Z,84.25
2019-02-02T06:47:35.726Z,85.08
2019-02-02T06:48:34.699Z,85.19
2019-02-02T06:49:34.697Z,85.08
2019-02-02T06:50:34.716Z,85.08
2019-02-02T06:51:34.666Z,85.08
2019-02-02T06:52:34.646Z,85.25
2019-02-02T06:53:34.633Z,84.45
2019-02-02T06:54:34.623Z,84.00
2019-02-02T06:55:34.612Z,84.25
2019-02-02T06:56:34.633Z,83.62
2019-02-02T06:57:34.594Z,83.27
2019-02-02T06:58:34.600Z,84.04
2019-02-02T06:59:34.567Z,83.62
2019-02-02T07:00:34.555Z,84.14
2019-02-02T07:01:34.574Z,83.97
2019-02-02T07:02:34.533Z,84.08
2019-02-02T07:03:34.524Z,85.53
2019-02-02T07:04:34.658Z,85.02
2019-02-02T07:05:34.581Z,85.43
2019-02-02T07:06:34.526Z,85.53
2019-02-02T07:07:34.487Z,85.02
2019-02-02T07:08:34.468Z,85.64
2019-02-02T07:09:34.466Z,85.64
2019-02-02T07:10:34.448Z,85.12
2019-02-02T07:11:34.482Z,85.22
2019-02-02T07:12:34.443Z,85.64
2019-02-02T07:13:36.089Z,85.74
2019-02-02T07:14:34.415Z,85.43
2019-02-02T07:15:34.396Z,85.33
2019-02-02T07:16:34.382Z,85.53
2019-02-02T07:17:34.410Z,85.85
2019-02-02T07:18:34.379Z,86.06
2019-02-02T07:19:34.361Z,86.06
2019-02-02T07:20:34.352Z,86.06
2019-02-02T07:21:34.346Z,85.74
2019-02-02T07:22:34.340Z,85.53
2019-02-02T07:23:34.355Z,85.50
2019-02-02T07:24:34.299Z,85.29
2019-02-02T07:25:34.295Z,85.60
2019-02-02T07:26:34.308Z,84.98
2019-02-02T07:27:34.265Z,85.19
2019-02-02T07:28:34.263Z,85.08
2019-02-02T07:29:34.247Z,85.19
2019-02-02T07:30:34.242Z,85.19
2019-02-02T07:31:34.259Z,84.63
2019-02-02T07:32:34.980Z,84.42
2019-02-02T07:33:34.205Z,84.42
2019-02-02T07:34:34.194Z,84.11
2019-02-02T07:35:34.192Z,84.42
2019-02-02T07:36:34.199Z,84.21
2019-02-02T07:37:34.159Z,84.11
2019-02-02T07:38:34.239Z,84.21
2019-02-02T07:39:34.133Z,84.21
2019-02-02T07:40:34.127Z,84.21
2019-02-02T07:41:34.150Z,84.00
2019-02-02T07:42:34.100Z,84.00
2019-02-02T07:43:34.092Z,84.11
2019-02-02T07:44:34.106Z,84.21
2019-02-02T07:45:34.069Z,84.21
2019-02-02T07:46:34.093Z,83.86
2019-02-02T07:47:34.087Z,84.11
2019-02-02T07:48:34.038Z,84.31
2019-02-02T07:49:34.028Z,84.11
2019-02-02T07:50:34.019Z,84.21
2019-02-02T07:51:34.027Z,84.21
2019-02-02T07:52:33.993Z,84.00
2019-02-02T07:53:34.008Z,84.27
2019-02-02T07:54:33.975Z,83.86
2019-02-02T07:55:33.969Z,83.96
2019-02-02T07:56:33.953Z,83.75
2019-02-02T07:57:33.945Z,83.34
2019-02-02T07:58:33.960Z,83.44
2019-02-02T07:59:33.923Z,83.80
2019-02-02T08:00:40.805Z,83.13
2019-02-02T08:01:34.895Z,83.13
2019-02-02T08:02:33.957Z,83.54
2019-02-02T08:03:33.875Z,83.13
2019-02-02T08:04:33.867Z,83.44
2019-02-02T08:05:33.865Z,83.86
2019-02-02T08:06:33.845Z,84.17
2019-02-02T08:07:33.834Z,83.65
2019-02-02T08:08:33.847Z,83.34
2019-02-02T08:09:33.807Z,83.54
2019-02-02T08:10:33.795Z,83.96
2019-02-02T08:11:33.828Z,83.23
2019-02-02T08:12:33.783Z,83.13
2019-02-02T08:13:33.829Z,83.54
2019-02-02T08:14:33.755Z,83.65
2019-02-02T08:15:33.740Z,83.65
2019-02-02T08:16:33.730Z,83.54
2019-02-02T08:17:33.770Z,83.75
2019-02-02T08:18:33.718Z,83.03
2019-02-02T08:19:33.698Z,83.65
2019-02-02T08:20:33.697Z,84.48
2019-02-02T08:21:33.687Z,85.21
2019-02-02T08:22:33.672Z,84.94
2019-02-02T08:23:33.700Z,84.59
2019-02-02T08:24:33.643Z,84.48
2019-02-02T08:25:33.635Z,84.17
2019-02-02T08:26:33.633Z,83.86
2019-02-02T08:27:33.613Z,84.27
2019-02-02T08:28:33.624Z,84.11
2019-02-02T08:29:33.630Z,84.52
2019-02-02T08:30:35.835Z,84.94
2019-02-02T08:31:33.586Z,85.04
2019-02-02T08:32:33.556Z,85.46
2019-02-02T08:33:33.548Z,85.67
2019-02-02T08:34:33.581Z,85.14
2019-02-02T08:35:33.551Z,85.25
2019-02-02T08:36:33.515Z,85.25
2019-02-02T08:37:33.533Z,85.35
2019-02-02T08:38:33.544Z,85.46
2019-02-02T08:39:33.514Z,85.25
2019-02-02T08:40:33.476Z,85.42
2019-02-02T08:41:33.466Z,85.42
2019-02-02T08:42:33.452Z,84.90
2019-02-02T08:43:33.477Z,85.11
2019-02-02T08:44:33.440Z,84.69
2019-02-02T08:45:33.423Z,85.04
2019-02-02T08:46:33.405Z,84.69
2019-02-02T08:47:33.405Z,84.48
2019-02-02T08:48:33.430Z,83.96
2019-02-02T08:49:33.380Z,84.06
2019-02-02T08:50:33.369Z,84.48
2019-02-02T08:51:33.351Z,84.69
2019-02-02T08:52:33.392Z,84.48
2019-02-02T08:53:33.439Z,85.14
2019-02-02T08:54:33.330Z,84.94
2019-02-02T08:55:33.428Z,85.04
2019-02-02T08:56:33.313Z,85.14
2019-02-02T08:57:33.340Z,85.67
2019-02-02T08:58:33.312Z,85.25
2019-02-02T08:59:33.265Z,85.25
2019-02-02T09:00:33.278Z,85.35
2019-02-02T09:01:33.244Z,85.56
2019-02-02T09:02:33.235Z,85.35
2019-02-02T09:03:33.252Z,85.56
2019-02-02T09:04:33.250Z,85.25
2019-02-02T09:05:33.222Z,85.56
2019-02-02T09:06:39.213Z,85.04
2019-02-02T09:07:34.179Z,85.04
2019-02-02T09:08:33.162Z,84.11
2019-02-02T09:09:33.206Z,84.48
2019-02-02T09:10:33.151Z,83.96
2019-02-02T09:11:33.129Z,84.06
2019-02-02T09:12:33.126Z,84.17
2019-02-02T09:13:33.110Z,83.75
2019-02-02T09:14:33.132Z,83.72
2019-02-02T09:15:33.127Z,83.20
2019-02-02T09:16:33.102Z,83.30
2019-02-02T09:17:33.064Z,83.34
2019-02-02T09:18:33.068Z,83.20
2019-02-02T09:19:33.084Z,83.03
2019-02-02T09:20:33.039Z,83.34
2019-02-02T09:21:33.021Z,84.06
2019-02-02T09:22:33.019Z,83.72
2019-02-02T09:23:33.002Z,83.09
2019-02-02T09:24:33.048Z,83.51
2019-02-02T09:25:32.976Z,83.40
2019-02-02T09:26:32.969Z,83.51
2019-02-02T09:27:32.959Z,82.78
2019-02-02T09:28:32.942Z,83.82
2019-02-02T09:29:32.969Z,83.13
2019-02-02T09:30:32.929Z,84.27
2019-02-02T09:31:32.915Z,84.06
2019-02-02T09:32:32.900Z,85.25
2019-02-02T09:33:32.939Z,84.83
2019-02-02T09:34:32.887Z,85.35
2019-02-02T09:35:32.913Z,85.39
2019-02-02T09:36:32.855Z,85.77
2019-02-02T09:37:32.847Z,85.98
2019-02-02T09:38:32.838Z,85.56
2019-02-02T09:39:32.851Z,86.22
2019-02-02T09:40:32.813Z,86.75
2019-02-02T09:41:32.833Z,86.29
2019-02-02T09:42:32.786Z,85.98
2019-02-02T09:43:32.777Z,85.88
2019-02-02T09:44:32.764Z,85.67
2019-02-02T09:45:32.753Z,85.35
2019-02-02T09:46:32.751Z,85.35
2019-02-02T09:47:32.765Z,85.35
2019-02-02T09:48:32.723Z,85.35
2019-02-02T09:49:32.709Z,85.11
2019-02-02T09:50:32.700Z,85.46
2019-02-02T09:51:32.716Z,85.25
2019-02-02T09:52:32.699Z,85.56
2019-02-02T09:53:32.691Z,85.67
2019-02-02T09:54:32.659Z,86.33
2019-02-02T09:55:32.649Z,86.40
2019-02-02T09:56:32.635Z,86.81
2019-02-02T09:57:32.634Z,86.60
2019-02-02T09:58:32.660Z,86.81
2019-02-02T09:59:32.601Z,86.91
2019-02-02T10:00:32.601Z,86.40
2019-02-02T10:01:32.594Z,86.15
2019-02-02T10:02:32.607Z,86.04
2019-02-02T10:03:32.556Z,85.83
2019-02-02T10:04:32.546Z,85.63
2019-02-02T10:05:32.534Z,85.77
2019-02-02T10:06:32.535Z,86.08
2019-02-02T10:07:32.515Z,86.15
2019-02-02T10:08:32.540Z,86.29
2019-02-02T10:09:32.489Z,86.04
2019-02-02T10:10:32.487Z,86.29
2019-02-02T10:11:32.464Z,86.40
2019-02-02T10:12:32.468Z,86.19
2019-02-02T10:13:32.447Z,85.98
2019-02-02T10:14:32.472Z,85.98
2019-02-02T10:15:32.426Z,86.35
2019-02-02T10:16:32.416Z,86.04
2019-02-02T10:17:32.406Z,85.73
2019-02-02T10:18:32.394Z,85.73
2019-02-02T10:19:32.379Z,85.63
2019-02-02T10:20:32.427Z,85.63
2019-02-02T10:21:32.361Z,85.52
2019-02-02T10:22:32.355Z,85.31
2019-02-02T10:23:32.333Z,85.63
2019-02-02T10:24:32.337Z,85.31
2019-02-02T10:25:32.349Z,85.73
2019-02-02T10:26:32.299Z,86.04
2019-02-02T10:27:32.304Z,86.08
2019-02-02T10:28:32.282Z,86.60
2019-02-02T10:29:32.317Z,86.81
2019-02-02T10:30:32.294Z,87.12
2019-02-02T10:31:39.168Z,86.91
2019-02-02T10:32:33.242Z,87.54
2019-02-02T10:33:32.223Z,87.43
2019-02-02T10:34:32.272Z,87.75
2019-02-02T10:35:32.233Z,87.12
2019-02-02T10:36:32.199Z,86.91
2019-02-02T10:37:32.199Z,87.12
2019-02-02T10:38:32.201Z,87.43
2019-02-02T10:39:32.168Z,87.33
2019-02-02T10:40:32.144Z,87.85
2019-02-02T10:41:32.166Z,87.81
2019-02-02T10:42:32.155Z,86.77
2019-02-02T10:43:32.125Z,87.29
2019-02-02T10:44:32.102Z,86.77
2019-02-02T10:45:32.110Z,87.08
2019-02-02T10:46:32.118Z,86.35
2019-02-02T10:47:32.077Z,86.25
2019-02-02T10:48:32.067Z,86.98
2019-02-02T10:49:32.049Z,86.67
2019-02-02T10:50:32.036Z,86.73
2019-02-02T10:51:32.079Z,86.63
2019-02-02T10:52:32.021Z,86.00
2019-02-02T10:53:32.881Z,86.04
2019-02-02T10:54:31.999Z,86.46
2019-02-02T10:55:31.983Z,86.88
2019-02-02T10:56:32.019Z,86.88
2019-02-02T10:57:31.977Z,86.98
2019-02-02T10:58:31.954Z,87.29
2019-02-02T10:59:31.964Z,87.08
2019-02-02T11:00:31.947Z,86.98
2019-02-02T11:01:31.952Z,86.98
2019-02-02T11:02:31.909Z,86.73
2019-02-02T11:03:31.917Z,86.52
2019-02-02T11:04:31.896Z,86.32
2019-02-02T11:05:31.885Z,85.80
2019-02-02T11:06:31.899Z,86.04
2019-02-02T11:07:31.890Z,86.35
2019-02-02T11:08:31.880Z,86.15
2019-02-02T11:09:31.833Z,86.25
2019-02-02T11:10:31.857Z,85.94
2019-02-02T11:11:31.812Z,85.90
2019-02-02T11:12:32.002Z,86.00
2019-02-02T11:13:31.792Z,85.90
2019-02-02T11:14:31.785Z,85.59
2019-02-02T11:15:31.851Z,85.28
2019-02-02T11:16:31.822Z,85.59
2019-02-02T11:17:31.860Z,85.63
2019-02-02T11:18:31.919Z,85.52
2019-02-02T11:19:31.773Z,86.08
2019-02-02T11:20:31.774Z,86.25
2019-02-02T11:21:31.719Z,87.08
2019-02-02T11:22:31.799Z,86.77
2019-02-02T11:23:32.022Z,87.19
2019-02-02T11:24:31.668Z,86.88
2019-02-02T11:25:31.819Z,86.35
2019-02-02T11:26:31.690Z,86.71
2019-02-02T11:27:31.644Z,86.35
2019-02-02T11:28:31.743Z,86.67
2019-02-02T11:29:31.670Z,85.94
2019-02-02T11:30:31.662Z,86.25
2019-02-02T11:31:31.587Z,86.11
2019-02-02T11:32:31.583Z,86.15
2019-02-02T11:33:31.561Z,86.04
2019-02-02T11:34:31.613Z,86.15
2019-02-02T11:35:31.549Z,85.83
2019-02-02T11:36:31.573Z,86.15
2019-02-02T11:37:31.521Z,86.57
2019-02-02T11:38:31.513Z,86.98
2019-02-02T11:39:31.501Z,87.50
2019-02-02T11:40:31.490Z,87.29
2019-02-02T11:41:31.502Z,86.67
2019-02-02T11:42:31.491Z,86.67
2019-02-02T11:43:31.454Z,87.08
2019-02-02T11:44:31.483Z,87.50
2019-02-02T11:45:31.460Z,87.71
2019-02-02T11:46:31.426Z,87.08
2019-02-02T11:47:31.467Z,86.98
2019-02-02T11:48:31.402Z,86.98
2019-02-02T11:49:31.387Z,87.15
2019-02-02T11:50:31.416Z,87.19
2019-02-02T11:51:31.377Z,87.40
2019-02-02T11:52:31.361Z,87.75
2019-02-02T11:53:31.345Z,88.06
2019-02-02T11:54:31.334Z,88.37
2019-02-02T11:55:31.360Z,87.85
2019-02-02T11:56:31.325Z,88.17
2019-02-02T11:57:31.301Z,88.79
2019-02-02T11:58:31.293Z,88.58
2019-02-02T11:59:31.324Z,88.79
2019-02-02T12:00:31.265Z,88.43
2019-02-02T12:01:31.279Z,88.23
2019-02-02T12:02:31.246Z,88.02
2019-02-02T12:03:31.235Z,87.60
2019-02-02T12:04:31.254Z,87.50
2019-02-02T12:05:31.215Z,87.88
2019-02-02T12:06:31.241Z,87.29
2019-02-02T12:07:31.326Z,87.29
2019-02-02T12:08:31.182Z,87.40
2019-02-02T12:09:31.175Z,87.29
2019-02-02T12:10:31.155Z,87.50
2019-02-02T12:11:31.183Z,87.50
2019-02-02T12:12:31.167Z,87.29
2019-02-02T12:13:31.131Z,87.50
2019-02-02T12:14:31.125Z,88.02
2019-02-02T12:15:31.137Z,87.71
2019-02-02T12:16:31.086Z,87.43
2019-02-02T12:17:31.119Z,88.06
2019-02-02T12:18:31.073Z,88.06
2019-02-02T12:19:31.057Z,88.06
2019-02-02T12:20:33.183Z,88.06
2019-02-02T12:21:31.036Z,87.85
2019-02-02T12:22:31.026Z,88.27
2019-02-02T12:23:31.056Z,87.92
2019-02-02T12:24:31.015Z,87.65
2019-02-02T12:25:30.991Z,87.43
2019-02-02T12:26:30.981Z,87.43
2019-02-02T12:27:30.991Z,87.85
2019-02-02T12:28:30.998Z,88.06
2019-02-02T12:29:30.946Z,87.85
2019-02-02T12:30:30.944Z,88.17
2019-02-02T12:31:30.922Z,88.10
2019-02-02T12:32:30.920Z,89.25
2019-02-02T12:33:30.932Z,88.93
2019-02-02T12:34:30.928Z,88.89
2019-02-02T12:35:30.883Z,89.10
2019-02-02T12:36:30.871Z,89.10
2019-02-02T12:37:30.861Z,88.58
2019-02-02T12:38:30.895Z,88.85
2019-02-02T12:39:30.849Z,87.71
2019-02-02T12:40:30.861Z,87.92
2019-02-02T12:41:30.816Z,88.02
2019-02-02T12:42:30.814Z,87.85
2019-02-02T12:43:30.793Z,87.65
2019-02-02T12:44:30.777Z,88.48
2019-02-02T12:45:30.801Z,88.37
2019-02-02T12:46:30.792Z,88.79
2019-02-02T12:47:30.758Z,89.20
2019-02-02T12:48:32.291Z,88.89
2019-02-02T12:49:30.727Z,88.68
2019-02-02T12:50:30.715Z,88.79
2019-02-02T12:51:30.738Z,88.68
2019-02-02T12:52:30.698Z,88.64